Airfield :
LOGIN :

Register | Disclaimer

   EN    FR    IT 

 










Legend :    VFR   Marginal VFR   IFR   Intensive IFR   Very Intensive IFR
Visi :
Ceiling :
>= 8 km
>= 3000ft
5 to 8 km
1000 to 3000 ft
1500m to 5 km
500 to 1000 ft
800 to 1500m
200 to 500 ft
< 800m
< 200 ft
Symbols :   Thunderstorms  Fog  Heavy snow  Heavy precipitations  Wind > 20 kt
SIGMETs :     Misc.  Thunderstorms  Icing  Turbulence  Mountain Waves  Volcanic Ashes







- Airport Elevation : 90 ft
- IATA code : NTE
- Download approach charts


LFRS - Nantes

CURRENT METAR :
  • 181230Z AUTO 07004KT 310V120 CAVOK 27/16 Q1008 NOSIG

EXPIRED METARs :
  • 181200Z AUTO 04006KT 350V110 CAVOK 26/17 Q1009 BECMG 17010KT
  • 181130Z AUTO 04007KT 350V100 CAVOK 25/16 Q1009 BECMG 17010KT
  • 181100Z AUTO 04007KT 340V080 CAVOK 25/17 Q1009 TEMPO SHRA SCT060CB BECMG 24010KT
  • 181030Z AUTO 36008KT 330V050 CAVOK 24/17 Q1009 TEMPO SHRA SCT060CB BECMG 24010KT
  • 181000Z AUTO 35007KT 300V040 CAVOK 24/17 Q1010 NOSIG

TAF TAF LFRS
Valid from the 18 at 12:00 until the 19 at 18:00 UTC


181100Z 1812/1918 17010KT CAVOK
BECMG 1818/1820 26007KT
PROB30
TEMPO 1822/1824 BKN003
PROB30
TEMPO 1903/1906 -SHRA BKN010 SCT040TCU
PROB30
TEMPO 1912/1918 24015G25KT 4000 SHRA BKN020 SCT040CB
ATIS : +33 2 40 05 12 74
No reported NOTAMs for that airfield.



MET'MAP, your aeronautical weather chart ! - Copyright ORBIFLY December 2007 - Disclaimer

ORBIFLY MET'MAP TEAM :

Programming & Development : Alexandra Zaïnal
Concept & Development : Baudouin d'Aumeries
Co-Development & Prog : Marc-Olivier Méhu
Technical & hardware support : Manuel Goepfert

Contact : metmap@orbifly.com




SOURCES & CREDITS :

   NOAA